Tain, United Kingdom

10:59 PM BST on September 03, 2015 (GMT +0100)
10 Miles from the Coast. Near the Dornoch Firth | | Change Station
CLOSE
Current Station
Personal Weather Station
Location: Edderton, SCOTLAND
Elevation: 60 ft
Nearby Weather Stations

Elev 60 ft 57.84 °N, 4.18 °W | Updated 9 minutes ago

Drizzle
Drizzle
50.3 °F
Feels Like 50.3 °F
N
2.0
Wind Variable Wind from NW
Gusts 12.0 mph

Today
High -- | Low -- °F
--% Chance of Precip.
Yesterday
High -- | Low -- °F
Precip. -- in
6:19 AM 8:09 PM
Waning Gibbous, 66% visible
Pressure 30.12 in
Visibility -9999.0 miles
Clouds Scattered Clouds 900 ft
Scattered Clouds 1800 ft
Dew Point 48 °F
Humidity 92%
Rainfall 0.02 in
Snow Depth Not available.
UV 0.0 out of 12
Pollen Not available.
Air Quality Not available.
Flu Activity Not available.
METAR EGPE 032150Z AUTO 31005KT 3100 DZ SCT009/// SCT018/// 09/09 Q1020
Pressure 30.12 in
Visibility -9999.0 miles
Clouds Scattered Clouds 900 ft
Scattered Clouds 1800 ft
Dew Point 48 °F
Humidity 92%
Rainfall 0.02 in
Snow Depth Not available.
UV 0.0 out of 12
Pollen Not available.
Air Quality Not available.
Flu Activity Not available.
METAR EGPE 032150Z AUTO 31005KT 3100 DZ SCT009/// SCT018/// 09/09 Q1020

10-Day Weather Forecast

×

Almanac

Astronomy

Sep. 03, 2015 Rise Set
Actual Time
Civil Twilight
Nautical Twilight
Astronomical Twilight
Moon
Length of Visible Light
Length of Day
Tomorrow will be .
, % of the Moon is Illuminated

Today's Extremes

Country Highs Country Lows

Community

WunderPhotos

Upload Photos

1,852,045 photos uploaded!

WunderBlogs® & News

Nearby

Air Quality

  Air Quality AQ Index Pollutant
Not available.

Snow Depth

Station Depth Elevation

Earthquake Activity

City Distance Mag. Time & Date
Minimum magnitude displayed is 2.5.

Coastal Water Temperatures

Place Temperature

Stations

Nearby Weather Stations

Station Location Temp. Windchill Dew Point Humidity Wind Precip. Elev Updated Type